createdAt,value
2018-10-05T00:00:50.763Z,43.33
2018-10-05T00:03:19.369Z,41.20
2018-10-05T00:05:48.211Z,45.77
2018-10-05T00:08:16.821Z,44.80
2018-10-05T00:10:45.554Z,42.40
2018-10-05T00:13:14.211Z,43.37
2018-10-05T00:15:42.816Z,46.37
2018-10-05T00:18:11.466Z,42.80
2018-10-05T00:20:41.095Z,41.10
2018-10-05T00:23:09.688Z,42.83
2018-10-05T00:25:38.658Z,44.43
2018-10-05T00:28:14.309Z,43.90
2018-10-05T00:30:43.227Z,44.63
2018-10-05T00:33:12.089Z,46.23
2018-10-05T00:35:41.621Z,46.27
2018-10-05T00:38:11.067Z,44.60
2018-10-05T00:40:42.386Z,45.67
2018-10-05T00:43:11.482Z,45.27
2018-10-05T00:45:41.037Z,53.37
2018-10-05T00:48:10.657Z,56.73
2018-10-05T00:50:39.226Z,60.63
2018-10-05T00:53:09.737Z,58.20
2018-10-05T00:55:39.019Z,53.67
2018-10-05T00:58:08.580Z,52.13
2018-10-05T01:00:38.168Z,52.57
2018-10-05T01:03:07.041Z,53.17
2018-10-05T01:05:35.798Z,52.10
2018-10-05T01:08:05.304Z,50.47
2018-10-05T01:10:34.970Z,50.67
2018-10-05T01:13:03.581Z,49.33
2018-10-05T01:15:32.206Z,49.17
2018-10-05T01:18:00.786Z,47.80
2018-10-05T01:20:30.467Z,48.97
2018-10-05T01:22:59.077Z,46.60
2018-10-05T01:25:27.986Z,48.20
2018-10-05T01:27:56.622Z,47.97
2018-10-05T01:30:26.164Z,49.10
2018-10-05T01:32:54.743Z,47.70
2018-10-05T01:35:24.547Z,51.20
2018-10-05T01:37:54.059Z,51.73
2018-10-05T01:40:23.454Z,48.63
2018-10-05T01:42:52.270Z,47.83
2018-10-05T01:45:20.846Z,45.87
2018-10-05T01:47:49.439Z,45.43
2018-10-05T01:50:18.142Z,44.83
2018-10-05T01:52:49.586Z,46.77
2018-10-05T01:55:19.039Z,45.53
2018-10-05T01:57:47.911Z,46.60
2018-10-05T02:00:17.250Z,45.13
2018-10-05T02:02:48.669Z,44.53
2018-10-05T02:05:19.279Z,45.07
2018-10-05T02:07:47.839Z,44.97
2018-10-05T02:10:16.394Z,44.37
2018-10-05T02:12:44.923Z,45.07
2018-10-05T02:15:13.450Z,46.67
2018-10-05T02:17:41.948Z,44.20
2018-10-05T02:20:10.535Z,44.03
2018-10-05T02:22:39.097Z,42.47
2018-10-05T02:25:07.638Z,44.53
2018-10-05T02:27:36.162Z,44.20
2018-10-05T02:30:04.656Z,43.50
2018-10-05T02:32:33.186Z,44.43
2018-10-05T02:35:01.691Z,44.70
2018-10-05T02:37:30.205Z,41.97
2018-10-05T02:39:58.682Z,43.97
2018-10-05T02:42:27.203Z,45.67
2018-10-05T02:44:55.707Z,47.93
2018-10-05T02:47:24.198Z,46.97
2018-10-05T02:49:52.750Z,44.23
2018-10-05T02:52:21.197Z,41.73
2018-10-05T02:54:50.600Z,40.90
2018-10-05T02:57:19.112Z,41.43
2018-10-05T02:59:47.721Z,41.93
2018-10-05T03:02:26.286Z,38.97
2018-10-05T03:04:54.831Z,40.10
2018-10-05T03:07:23.340Z,41.30
2018-10-05T03:09:51.826Z,41.23
2018-10-05T03:12:20.324Z,41.13
2018-10-05T03:14:48.959Z,39.27
2018-10-05T03:17:17.440Z,40.73
2018-10-05T03:19:46.048Z,44.33
2018-10-05T03:22:14.551Z,42.87
2018-10-05T03:24:43.137Z,44.07
2018-10-05T03:27:11.615Z,43.10
2018-10-05T03:29:40.105Z,46.33
2018-10-05T03:32:08.689Z,44.30
2018-10-05T03:34:37.244Z,43.37
2018-10-05T03:37:06.115Z,42.40
2018-10-05T03:39:34.595Z,41.43
2018-10-05T03:42:03.098Z,41.97
2018-10-05T03:44:31.578Z,41.20
2018-10-05T03:47:00.127Z,43.17
2018-10-05T03:49:28.633Z,41.50
2018-10-05T03:51:57.122Z,39.53
2018-10-05T03:54:26.004Z,36.83
2018-10-05T03:56:54.477Z,36.23
2018-10-05T03:59:22.923Z,35.73
2018-10-05T04:01:51.445Z,34.53
2018-10-05T04:04:20.032Z,35.80
2018-10-05T04:06:48.546Z,36.70
2018-10-05T04:09:17.119Z,32.17
2018-10-05T04:11:46.778Z,35.40
2018-10-05T04:14:15.308Z,38.03
2018-10-05T04:16:43.937Z,36.73
2018-10-05T04:19:12.499Z,35.03
2018-10-05T04:21:41.084Z,35.70
2018-10-05T04:24:09.669Z,36.90
2018-10-05T04:26:38.249Z,33.93
2018-10-05T04:29:06.832Z,34.20
2018-10-05T04:31:35.369Z,34.73
2018-10-05T04:34:03.921Z,35.67
2018-10-05T04:36:32.543Z,34.73
2018-10-05T04:39:01.033Z,36.53
2018-10-05T04:41:29.490Z,35.30
2018-10-05T04:43:58.028Z,33.40
2018-10-05T04:46:26.580Z,30.07
2018-10-05T04:48:55.085Z,30.43
2018-10-05T04:51:23.659Z,31.17
2018-10-05T04:53:52.118Z,31.60
2018-10-05T04:56:20.633Z,38.13
2018-10-05T04:58:49.187Z,38.27
2018-10-05T05:01:17.740Z,38.17
2018-10-05T05:03:46.216Z,34.60
2018-10-05T05:06:14.752Z,32.70
2018-10-05T05:08:43.259Z,30.53
2018-10-05T05:11:12.858Z,28.20
2018-10-05T05:13:43.370Z,27.50
2018-10-05T05:16:11.909Z,24.30
2018-10-05T05:18:40.620Z,23.37
2018-10-05T05:21:09.119Z,22.60
2018-10-05T05:23:37.603Z,22.70
2018-10-05T05:26:06.118Z,22.73
2018-10-05T05:28:34.620Z,24.73
2018-10-05T05:31:03.405Z,24.53
2018-10-05T05:33:31.980Z,24.30
2018-10-05T05:36:00.470Z,26.53
2018-10-05T05:38:29.071Z,25.17
2018-10-05T05:40:57.547Z,27.60
2018-10-05T05:43:26.085Z,23.83
2018-10-05T05:45:54.532Z,21.47
2018-10-05T05:48:23.031Z,20.67
2018-10-05T05:50:51.528Z,19.63
2018-10-05T05:53:20.094Z,22.60
2018-10-05T05:55:48.662Z,24.50
2018-10-05T05:58:17.131Z,26.13
2018-10-05T06:00:45.594Z,19.77
2018-10-05T06:03:14.142Z,27.23
2018-10-05T06:05:42.646Z,27.63
2018-10-05T06:08:11.206Z,31.37
2018-10-05T06:10:39.737Z,31.77
2018-10-05T06:13:08.341Z,34.87
2018-10-05T06:15:36.900Z,35.63
2018-10-05T06:18:05.474Z,37.90
2018-10-05T06:20:34.039Z,39.20
2018-10-05T06:23:02.752Z,36.40
2018-10-05T06:25:31.195Z,36.93
2018-10-05T06:27:59.725Z,33.53
2018-10-05T06:30:28.661Z,33.33
2018-10-05T06:32:57.789Z,38.87
2018-10-05T06:35:26.973Z,38.87
2018-10-05T06:37:55.851Z,31.27
2018-10-05T06:40:24.422Z,20.83
2018-10-05T06:42:52.902Z,16.17
2018-10-05T06:45:21.432Z,18.33
2018-10-05T06:47:50.119Z,16.33
2018-10-05T06:50:18.662Z,14.33
2018-10-05T06:52:47.160Z,10.43
2018-10-05T06:55:16.190Z,9.13
2018-10-05T06:57:44.789Z,12.93
2018-10-05T07:00:13.378Z,14.90
2018-10-05T07:02:41.863Z,14.20
2018-10-05T07:05:10.385Z,13.20
2018-10-05T07:07:38.919Z,11.63
2018-10-05T07:10:07.345Z,9.80
2018-10-05T07:12:35.818Z,7.73
2018-10-05T07:15:04.351Z,10.17
2018-10-05T07:17:32.889Z,10.07
2018-10-05T07:20:01.368Z,9.80
2018-10-05T07:22:29.909Z,10.53
2018-10-05T07:24:58.457Z,10.73
2018-10-05T07:27:26.975Z,9.77
2018-10-05T07:29:55.689Z,10.53
2018-10-05T07:32:24.179Z,10.47
2018-10-05T07:34:52.666Z,10.50
2018-10-05T07:37:21.177Z,10.07
2018-10-05T07:39:49.631Z,9.93
2018-10-05T07:42:18.172Z,9.50
2018-10-05T07:44:46.680Z,9.53
2018-10-05T07:47:15.230Z,9.33
2018-10-05T07:49:43.932Z,9.80
2018-10-05T07:52:12.432Z,9.37
2018-10-05T07:54:40.950Z,9.10
2018-10-05T07:57:09.442Z,9.20
2018-10-05T07:59:38.003Z,8.63
2018-10-05T08:02:07.228Z,8.10
2018-10-05T08:04:35.682Z,8.20
2018-10-05T08:07:04.191Z,8.17
2018-10-05T08:09:32.757Z,8.57
2018-10-05T08:12:01.283Z,8.63
2018-10-05T08:14:29.803Z,8.93
2018-10-05T08:16:58.315Z,9.77
2018-10-05T08:19:27.674Z,9.90
2018-10-05T08:21:56.211Z,10.43
2018-10-05T08:24:24.793Z,9.70
2018-10-05T08:26:53.299Z,10.70
2018-10-05T08:29:21.829Z,10.37
2018-10-05T08:31:50.406Z,10.13
2018-10-05T08:34:18.972Z,9.07
2018-10-05T08:36:47.684Z,9.17
2018-10-05T08:39:16.290Z,9.20
2018-10-05T08:41:44.770Z,9.33
2018-10-05T08:44:13.226Z,9.63
2018-10-05T08:46:41.803Z,5.97
2018-10-05T08:49:10.388Z,6.80
2018-10-05T08:51:38.934Z,6.93
2018-10-05T08:54:07.794Z,6.60
2018-10-05T08:56:36.417Z,8.97
2018-10-05T08:59:05.042Z,7.57
2018-10-05T09:01:33.722Z,7.30
2018-10-05T09:04:02.339Z,5.40
2018-10-05T09:06:31.196Z,5.57
2018-10-05T09:09:00.086Z,6.83
2018-10-05T09:11:28.696Z,5.30
2018-10-05T09:13:57.329Z,4.80
2018-10-05T09:16:25.970Z,5.80
2018-10-05T09:18:54.455Z,4.53
2018-10-05T09:21:23.002Z,5.50
2018-10-05T09:23:51.632Z,6.20
2018-10-05T09:26:20.198Z,5.30
2018-10-05T09:28:48.736Z,5.83
2018-10-05T09:31:17.273Z,5.20
2018-10-05T09:33:45.856Z,4.90
2018-10-05T09:36:14.481Z,5.20
2018-10-05T09:38:43.194Z,6.27
2018-10-05T09:41:11.676Z,4.13
2018-10-05T09:43:40.190Z,4.00
2018-10-05T09:46:08.691Z,4.13
2018-10-05T09:48:37.215Z,4.40
2018-10-05T09:51:05.811Z,4.30
2018-10-05T09:53:34.695Z,3.90
2018-10-05T09:56:03.712Z,4.57
2018-10-05T09:58:32.530Z,4.60
2018-10-05T10:01:06.516Z,4.33
2018-10-05T10:03:36.467Z,4.23
2018-10-05T10:06:05.807Z,4.40
2018-10-05T10:08:34.510Z,4.30
2018-10-05T10:11:03.166Z,3.97
2018-10-05T10:13:31.815Z,3.30
2018-10-05T10:16:00.358Z,3.87
2018-10-05T10:18:28.925Z,3.73
2018-10-05T10:20:57.500Z,3.10
2018-10-05T10:23:26.046Z,2.97
2018-10-05T10:25:54.570Z,2.33
2018-10-05T10:28:23.466Z,2.63
2018-10-05T10:30:51.975Z,3.00
2018-10-05T10:33:20.492Z,3.27
2018-10-05T10:35:49.080Z,3.23
2018-10-05T10:38:17.660Z,3.40
2018-10-05T10:40:46.218Z,2.83
2018-10-05T10:43:14.796Z,2.70
2018-10-05T10:45:43.424Z,2.83
2018-10-05T10:48:12.024Z,3.07
2018-10-05T10:50:40.599Z,3.13
2018-10-05T10:53:09.244Z,3.27
2018-10-05T10:55:37.871Z,3.57
2018-10-05T10:58:06.631Z,3.17
2018-10-05T11:00:35.244Z,3.47
2018-10-05T11:03:04.209Z,3.53
2018-10-05T11:05:32.918Z,3.90
2018-10-05T11:08:01.581Z,3.30
2018-10-05T11:10:30.206Z,4.00
2018-10-05T11:12:58.765Z,3.27
2018-10-05T11:15:27.292Z,3.60
2018-10-05T11:17:55.917Z,3.67
2018-10-05T11:20:24.448Z,3.97
2018-10-05T11:22:53.034Z,4.10
2018-10-05T11:25:21.584Z,4.10
2018-10-05T11:27:50.254Z,4.17
2018-10-05T11:30:18.844Z,4.47
2018-10-05T11:32:47.531Z,3.97
2018-10-05T11:35:16.279Z,4.10
2018-10-05T11:37:44.945Z,3.60
2018-10-05T11:40:13.578Z,3.83
2018-10-05T11:42:42.219Z,4.20
2018-10-05T11:45:10.790Z,3.93
2018-10-05T11:47:39.472Z,4.00
2018-10-05T11:50:08.122Z,4.13
2018-10-05T11:52:36.746Z,3.93
2018-10-05T11:55:05.306Z,3.83
2018-10-05T11:57:33.891Z,3.97
2018-10-05T12:00:03.228Z,4.00
2018-10-05T12:05:53.379Z,3.90
2018-10-05T12:11:59.739Z,4.40
2018-10-05T12:14:28.356Z,4.37
2018-10-05T12:16:57.122Z,3.97
2018-10-05T12:19:25.787Z,3.97
2018-10-05T12:21:55.363Z,3.57
2018-10-05T12:24:24.084Z,4.27
2018-10-05T12:26:52.784Z,3.83
2018-10-05T12:29:21.318Z,3.90
2018-10-05T12:32:06.446Z,4.03
2018-10-05T12:34:34.727Z,3.47
2018-10-05T12:37:03.900Z,4.07
2018-10-05T12:39:32.268Z,4.00
2018-10-05T12:42:00.610Z,3.77
2018-10-05T12:44:28.830Z,3.40
2018-10-05T12:46:57.122Z,4.53
2018-10-05T12:49:25.382Z,3.47
2018-10-05T12:51:53.657Z,3.90
2018-10-05T12:54:21.953Z,4.30
2018-10-05T12:56:50.214Z,4.10
2018-10-05T12:59:18.472Z,4.17
2018-10-05T13:01:46.761Z,4.10
2018-10-05T13:04:15.014Z,4.20
2018-10-05T13:06:43.272Z,4.43
2018-10-05T13:09:11.814Z,3.57
2018-10-05T13:11:40.342Z,4.27
2018-10-05T13:14:08.912Z,4.20
2018-10-05T13:16:37.543Z,3.70
2018-10-05T13:19:06.374Z,3.53
2018-10-05T13:21:35.109Z,3.53
2018-10-05T13:24:04.499Z,4.10
2018-10-05T13:26:33.174Z,3.90
2018-10-05T13:29:01.760Z,3.70
2018-10-05T13:31:30.302Z,4.27
2018-10-05T13:33:59.017Z,4.13
2018-10-05T13:36:27.596Z,4.63
2018-10-05T13:38:56.229Z,3.67
2018-10-05T13:41:24.815Z,3.70
2018-10-05T13:43:53.500Z,3.80
2018-10-05T13:46:22.091Z,3.90
2018-10-05T13:48:50.890Z,3.90
2018-10-05T13:51:19.466Z,3.67
2018-10-05T13:53:48.046Z,4.23
2018-10-05T13:56:16.594Z,3.77
2018-10-05T13:58:45.259Z,3.53
2018-10-05T14:01:13.928Z,4.27
2018-10-05T14:03:42.567Z,4.23
2018-10-05T14:06:11.166Z,4.37
2018-10-05T14:08:39.739Z,3.80
2018-10-05T14:11:08.351Z,4.13
2018-10-05T14:13:37.042Z,3.97
2018-10-05T14:16:05.795Z,4.23
2018-10-05T14:18:34.389Z,3.87
2018-10-05T14:21:03.036Z,3.90
2018-10-05T14:23:31.632Z,11.17
2018-10-05T14:26:00.617Z,13.40
2018-10-05T14:28:29.175Z,8.13
2018-10-05T14:30:57.831Z,7.13
2018-10-05T14:33:26.506Z,6.20
2018-10-05T14:35:55.097Z,4.80
2018-10-05T14:38:23.673Z,3.30
2018-10-05T14:40:52.308Z,4.00
2018-10-05T14:43:20.948Z,5.40
2018-10-05T15:02:52.682Z,3.90
2018-10-05T15:05:22.289Z,3.60
2018-10-05T15:08:05.556Z,3.63
2018-10-05T15:10:34.492Z,3.47
2018-10-05T15:16:24.378Z,3.27
2018-10-05T15:18:53.304Z,3.70
2018-10-05T15:21:58.303Z,3.87
2018-10-05T15:24:26.967Z,3.83
2018-10-05T15:26:55.551Z,4.00
2018-10-05T15:29:24.593Z,3.93
2018-10-05T15:32:16.978Z,3.80
2018-10-05T15:34:46.700Z,3.53
2018-10-05T15:37:16.259Z,4.60
2018-10-05T15:39:46.950Z,4.33
2018-10-05T15:42:15.657Z,4.63
2018-10-05T15:44:44.221Z,4.67
2018-10-05T15:47:15.144Z,4.97
2018-10-05T15:49:44.110Z,4.70
2018-10-05T15:52:12.808Z,5.17
2018-10-05T15:54:41.370Z,5.37
2018-10-05T15:57:10.071Z,5.93
2018-10-05T15:59:39.012Z,5.63
2018-10-05T16:02:07.638Z,5.80
2018-10-05T16:04:36.254Z,6.57
2018-10-05T16:07:04.922Z,6.93
2018-10-05T16:09:33.493Z,6.17
2018-10-05T16:12:02.060Z,7.93
2018-10-05T16:14:30.716Z,9.87
2018-10-05T16:16:59.368Z,10.63
2018-10-05T16:19:28.036Z,16.53
2018-10-05T16:21:56.668Z,19.33
2018-10-05T16:24:31.739Z,19.13
2018-10-05T16:27:00.390Z,22.30
2018-10-05T16:29:29.011Z,24.13
2018-10-05T16:31:57.618Z,24.00
2018-10-05T16:34:26.191Z,20.70
2018-10-05T16:36:54.888Z,18.47
2018-10-05T16:39:23.473Z,18.97
2018-10-05T16:41:52.062Z,18.90
2018-10-05T16:44:21.290Z,19.50
2018-10-05T16:46:50.520Z,21.00
2018-10-05T16:49:21.900Z,18.90
2018-10-05T16:51:50.704Z,16.97
2018-10-05T16:54:20.287Z,17.47
2018-10-05T16:56:56.391Z,16.73
2018-10-05T16:59:25.026Z,16.67
2018-10-05T17:01:53.721Z,18.17
2018-10-05T17:04:22.398Z,18.70
2018-10-05T17:06:51.026Z,17.17
2018-10-05T17:09:19.632Z,15.17
2018-10-05T17:11:48.226Z,14.83
2018-10-05T17:14:16.929Z,13.30
2018-10-05T17:16:45.509Z,13.63
2018-10-05T17:19:14.086Z,13.70
2018-10-05T17:21:42.694Z,13.57
2018-10-05T17:24:11.540Z,12.77
2018-10-05T17:26:40.638Z,11.63
2018-10-05T17:29:09.400Z,10.40
2018-10-05T17:31:38.300Z,11.07
2018-10-05T17:34:07.057Z,11.13
2018-10-05T17:36:36.330Z,11.47
2018-10-05T17:39:07.838Z,13.33
2018-10-05T17:41:36.410Z,13.17
2018-10-05T17:44:04.964Z,14.13
2018-10-05T17:46:33.587Z,14.47
2018-10-05T17:49:02.345Z,14.17
2018-10-05T17:51:30.927Z,14.33
2018-10-05T17:54:00.672Z,15.87
2018-10-05T17:56:29.229Z,17.10
2018-10-05T17:58:57.757Z,17.20
2018-10-05T18:01:26.258Z,16.93
2018-10-05T18:03:54.818Z,17.33
2018-10-05T18:06:23.386Z,16.17
2018-10-05T18:08:51.854Z,15.53
2018-10-05T18:11:20.404Z,15.40
2018-10-05T18:13:48.941Z,14.57
2018-10-05T18:16:17.544Z,13.50
2018-10-05T18:18:46.288Z,13.73
2018-10-05T18:21:15.606Z,12.53
2018-10-05T18:23:44.206Z,12.80
2018-10-05T18:26:12.934Z,12.83
2018-10-05T18:28:41.477Z,13.43
2018-10-05T18:31:10.068Z,17.33
2018-10-05T18:33:38.667Z,21.60
2018-10-05T18:36:07.234Z,25.67
2018-10-05T18:38:35.694Z,24.60
2018-10-05T18:41:04.255Z,22.53
2018-10-05T18:43:32.747Z,21.53
2018-10-05T18:46:01.304Z,16.63
2018-10-05T18:48:29.887Z,13.60
2018-10-05T18:50:58.727Z,13.40
2018-10-05T18:53:28.112Z,12.80
2018-10-05T18:56:02.965Z,12.77
2018-10-05T18:58:32.163Z,13.07
2018-10-05T19:01:01.821Z,13.23
2018-10-05T19:03:30.477Z,13.37
2018-10-05T19:05:59.375Z,14.33
2018-10-05T19:08:28.125Z,13.57
2018-10-05T19:10:57.676Z,13.97
2018-10-05T19:13:26.720Z,12.87
2018-10-05T19:15:56.761Z,13.97
2018-10-05T19:18:25.882Z,13.37
2018-10-05T19:20:55.232Z,14.80
2018-10-05T19:23:24.038Z,14.30
2018-10-05T19:25:53.770Z,13.93
2018-10-05T19:28:22.663Z,24.47
2018-10-05T19:30:51.604Z,25.63
2018-10-05T19:33:20.294Z,43.03
2018-10-05T19:35:49.557Z,47.27
2018-10-05T19:38:18.221Z,51.27
2018-10-05T19:40:46.786Z,35.97
2018-10-05T19:43:16.503Z,34.93
2018-10-05T19:45:45.174Z,31.63
2018-10-05T19:48:14.035Z,30.40
2018-10-05T19:50:43.855Z,30.77
2018-10-05T19:53:12.577Z,34.90
2018-10-05T19:55:41.186Z,41.60
2018-10-05T19:58:09.743Z,51.17
2018-10-05T20:00:38.438Z,70.80
2018-10-05T20:03:07.062Z,75.50
2018-10-05T20:05:35.786Z,40.73
2018-10-05T20:08:04.393Z,42.40
2018-10-05T20:10:33.078Z,39.37
2018-10-05T20:13:01.675Z,39.53
2018-10-05T20:15:31.203Z,38.47
2018-10-05T20:18:00.102Z,39.30
2018-10-05T20:20:28.378Z,39.20
2018-10-05T20:22:56.952Z,39.43
2018-10-05T20:25:25.589Z,41.90
2018-10-05T20:27:54.625Z,41.30
2018-10-05T20:30:24.151Z,39.80
2018-10-05T20:32:52.732Z,39.53
2018-10-05T20:35:21.358Z,42.00
2018-10-05T20:37:50.350Z,46.40
2018-10-05T20:40:19.561Z,46.83
2018-10-05T20:42:48.275Z,40.77
2018-10-05T20:45:16.958Z,31.73
2018-10-05T20:47:45.913Z,33.57
2018-10-05T20:50:14.419Z,33.30
2018-10-05T20:52:43.003Z,32.27
2018-10-05T20:55:11.687Z,33.97
2018-10-05T20:57:40.321Z,37.33
2018-10-05T21:00:08.953Z,36.03
2018-10-05T21:02:38.366Z,37.87
2018-10-05T21:05:06.960Z,36.50
2018-10-05T21:07:36.399Z,35.07
2018-10-05T21:10:04.963Z,33.27
2018-10-05T21:12:34.358Z,32.90
2018-10-05T21:15:03.060Z,32.40
2018-10-05T21:17:31.627Z,33.03
2018-10-05T21:20:00.550Z,32.57
2018-10-05T21:22:29.930Z,31.87
2018-10-05T21:24:58.590Z,32.30
2018-10-05T21:27:27.952Z,30.70
2018-10-05T21:29:57.187Z,30.03
2018-10-05T21:32:26.060Z,30.83
2018-10-05T21:34:55.548Z,30.13
2018-10-05T21:37:24.187Z,31.83
2018-10-05T21:39:52.782Z,33.93
2018-10-05T21:42:21.438Z,34.70
2018-10-05T21:44:50.285Z,34.83
2018-10-05T21:47:18.874Z,34.83
2018-10-05T21:49:47.474Z,35.03
2018-10-05T21:52:16.095Z,33.20
2018-10-05T21:54:44.759Z,32.53
2018-10-05T21:57:13.339Z,34.67
2018-10-05T21:59:41.923Z,34.40
2018-10-05T22:02:10.502Z,35.43
2018-10-05T22:04:39.043Z,34.70
2018-10-05T22:07:07.678Z,35.27
2018-10-05T22:09:36.302Z,38.03
2018-10-05T22:12:04.937Z,34.30
2018-10-05T22:14:33.871Z,34.63
2018-10-05T22:17:02.499Z,36.93
2018-10-05T22:19:31.142Z,33.30
2018-10-05T22:21:59.656Z,33.83
2018-10-05T22:24:28.251Z,33.60
2018-10-05T22:26:56.818Z,33.63
2018-10-05T22:29:25.413Z,31.57
2018-10-05T22:31:54.699Z,31.83
2018-10-05T22:37:57.764Z,32.37
2018-10-05T22:40:46.984Z,32.43
2018-10-05T22:43:15.583Z,32.17
2018-10-05T22:45:45.228Z,31.90
2018-10-05T22:48:13.816Z,32.50
2018-10-05T22:50:42.370Z,33.23
2018-10-05T22:53:11.067Z,33.37
2018-10-05T22:55:39.683Z,33.20
2018-10-05T22:58:08.253Z,33.47
2018-10-05T23:00:36.835Z,33.87
2018-10-05T23:03:05.655Z,30.90
2018-10-05T23:05:34.276Z,30.67
2018-10-05T23:08:02.812Z,30.43
2018-10-05T23:10:31.390Z,31.17
2018-10-05T23:13:00.056Z,29.77
2018-10-05T23:15:28.644Z,32.37
2018-10-05T23:17:57.217Z,30.37
2018-10-05T23:20:25.771Z,30.73
2018-10-05T23:22:54.476Z,31.37
2018-10-05T23:25:23.119Z,29.97
2018-10-05T23:27:51.708Z,33.27
2018-10-05T23:30:20.291Z,34.63
2018-10-05T23:32:48.911Z,34.47
2018-10-05T23:35:17.534Z,32.67
2018-10-05T23:37:46.116Z,31.17
2018-10-05T23:40:14.702Z,30.20
2018-10-05T23:42:43.286Z,29.30
2018-10-05T23:45:11.859Z,29.17
2018-10-05T23:47:40.498Z,33.47
2018-10-05T23:50:09.126Z,37.30
2018-10-05T23:52:41.193Z,35.93
2018-10-05T23:55:09.778Z,36.60
2018-10-05T23:57:38.962Z,39.10
